createdAt,value
2022-11-27T00:00:18.944Z,6.30
2022-11-27T00:02:45.400Z,6.30
2022-11-27T00:05:11.931Z,6.32
2022-11-27T00:07:38.466Z,6.10
2022-11-27T00:10:05.248Z,6.36
2022-11-27T00:12:31.686Z,6.36
2022-11-27T00:14:58.290Z,6.34
2022-11-27T00:17:24.970Z,6.33
2022-11-27T00:19:51.365Z,6.32
2022-11-27T00:22:17.716Z,6.36
2022-11-27T00:24:44.179Z,6.31
2022-11-27T00:27:10.924Z,6.32
2022-11-27T00:29:37.387Z,6.34
2022-11-27T00:32:06.453Z,6.34
2022-11-27T00:34:32.830Z,6.35
2022-11-27T00:36:59.149Z,6.36
2022-11-27T00:39:25.506Z,6.39
2022-11-27T00:41:51.864Z,6.37
2022-11-27T00:44:18.310Z,6.38
2022-11-27T00:46:45.114Z,6.36
2022-11-27T00:49:13.836Z,6.38
2022-11-27T00:51:40.548Z,6.38
2022-11-27T00:54:09.973Z,6.37
2022-11-27T00:56:37.474Z,6.34
2022-11-27T00:59:04.883Z,6.29
2022-11-27T01:01:33.094Z,6.25
2022-11-27T01:04:02.394Z,6.24
2022-11-27T01:06:29.405Z,6.25
2022-11-27T01:08:56.954Z,6.23
2022-11-27T01:11:28.019Z,6.24
2022-11-27T01:13:56.512Z,6.24
2022-11-27T01:16:23.996Z,6.27
2022-11-27T01:18:51.040Z,6.26
2022-11-27T01:21:18.898Z,6.26
2022-11-27T01:23:45.485Z,6.28
2022-11-27T01:26:12.815Z,6.25
2022-11-27T01:28:41.679Z,6.24
2022-11-27T01:31:09.738Z,6.26
2022-11-27T01:33:36.223Z,6.27
2022-11-27T01:36:04.051Z,6.19
2022-11-27T01:38:30.656Z,6.21
2022-11-27T01:40:58.718Z,6.24
2022-11-27T01:43:48.814Z,6.21
2022-11-27T01:46:39.256Z,6.20
2022-11-27T01:49:08.682Z,6.21
2022-11-27T01:51:37.185Z,6.19
2022-11-27T01:54:03.719Z,6.16
2022-11-27T01:56:30.209Z,6.09
2022-11-27T01:58:58.229Z,6.21
2022-11-27T02:01:26.371Z,6.22
2022-11-27T02:03:54.034Z,6.21
2022-11-27T02:06:20.655Z,6.20
2022-11-27T02:08:47.048Z,6.25
2022-11-27T02:11:18.592Z,6.22
2022-11-27T02:13:51.011Z,6.23
2022-11-27T02:16:34.468Z,6.19
2022-11-27T02:19:21.343Z,6.20
2022-11-27T02:22:03.341Z,6.17
2022-11-27T02:24:32.721Z,6.17
2022-11-27T02:27:10.785Z,6.12
2022-11-27T02:29:38.652Z,6.11
2022-11-27T02:32:15.718Z,6.13
2022-11-27T02:34:45.286Z,6.10
2022-11-27T02:37:11.703Z,6.11
2022-11-27T02:39:45.969Z,6.14
2022-11-27T02:42:16.744Z,6.15
2022-11-27T02:44:46.764Z,6.15
2022-11-27T02:47:14.376Z,6.09
2022-11-27T02:49:41.951Z,6.08
2022-11-27T02:52:09.492Z,6.07
2022-11-27T02:54:36.579Z,6.04
2022-11-27T02:57:05.243Z,6.02
2022-11-27T02:59:34.279Z,5.98
2022-11-27T03:02:10.652Z,5.96
2022-11-27T03:04:46.555Z,5.92
2022-11-27T03:07:16.829Z,5.94
2022-11-27T03:09:45.058Z,5.91
2022-11-27T03:12:12.234Z,5.88
2022-11-27T03:14:39.984Z,5.87
2022-11-27T03:17:22.364Z,5.87
2022-11-27T03:19:53.326Z,5.87
2022-11-27T03:22:19.944Z,5.90
2022-11-27T03:25:12.279Z,5.91
2022-11-27T03:27:53.551Z,5.92
2022-11-27T03:30:20.163Z,5.95
2022-11-27T03:32:46.940Z,5.88
2022-11-27T03:35:14.965Z,5.90
2022-11-27T03:37:41.669Z,5.97
2022-11-27T03:40:08.734Z,5.92
2022-11-27T03:42:43.323Z,5.89
2022-11-27T03:45:23.265Z,5.97
2022-11-27T03:47:49.671Z,5.97
2022-11-27T03:50:25.471Z,5.94
2022-11-27T03:52:54.693Z,5.99
2022-11-27T03:55:42.368Z,6.03
2022-11-27T03:58:11.696Z,5.98
2022-11-27T04:00:40.333Z,6.04
2022-11-27T04:03:09.865Z,6.06
2022-11-27T04:05:37.130Z,6.10
2022-11-27T04:08:04.560Z,6.12
2022-11-27T04:10:32.207Z,6.11
2022-11-27T04:12:59.616Z,6.13
2022-11-27T04:15:26.065Z,6.13
2022-11-27T04:17:52.393Z,6.10
2022-11-27T04:20:19.271Z,6.09
2022-11-27T04:22:45.699Z,6.16
2022-11-27T04:25:12.067Z,6.20
2022-11-27T04:27:38.424Z,6.16
2022-11-27T04:30:05.128Z,6.21
2022-11-27T04:32:31.471Z,6.21
2022-11-27T04:34:57.792Z,6.16
2022-11-27T04:37:24.233Z,6.17
2022-11-27T04:39:50.783Z,6.18
2022-11-27T04:42:17.113Z,6.22
2022-11-27T04:44:45.439Z,6.24
2022-11-27T04:47:15.398Z,6.27
2022-11-27T04:49:41.848Z,6.26
2022-11-27T04:52:08.184Z,6.22
2022-11-27T04:54:34.649Z,6.22
2022-11-27T04:57:00.988Z,6.20
2022-11-27T04:59:29.205Z,6.21
2022-11-27T05:01:56.490Z,6.20
2022-11-27T05:04:23.242Z,6.20
2022-11-27T05:06:49.903Z,6.27
2022-11-27T05:09:20.438Z,6.29
2022-11-27T05:11:49.770Z,6.28
2022-11-27T05:14:16.957Z,6.27
2022-11-27T05:16:45.633Z,6.31
2022-11-27T05:19:12.158Z,6.31
2022-11-27T05:21:38.583Z,6.28
2022-11-27T05:24:05.252Z,6.05
2022-11-27T05:26:31.880Z,6.32
2022-11-27T05:28:58.364Z,6.33
2022-11-27T05:31:24.940Z,6.35
2022-11-27T05:33:51.609Z,6.40
2022-11-27T05:36:18.069Z,6.38
2022-11-27T05:38:44.550Z,6.35
2022-11-27T05:41:11.024Z,6.39
2022-11-27T05:43:37.453Z,6.41
2022-11-27T05:46:07.269Z,6.42
2022-11-27T05:48:34.503Z,6.42
2022-11-27T05:51:01.655Z,6.37
2022-11-27T05:53:29.145Z,6.40
2022-11-27T05:56:01.086Z,6.42
2022-11-27T05:58:27.472Z,6.47
2022-11-27T06:00:53.922Z,6.49
2022-11-27T06:03:20.580Z,6.47
2022-11-27T06:05:47.051Z,6.47
2022-11-27T06:08:13.532Z,6.47
2022-11-27T06:10:40.315Z,6.47
2022-11-27T06:13:06.974Z,6.50
2022-11-27T06:15:35.343Z,6.50
2022-11-27T06:18:01.655Z,6.51
2022-11-27T06:20:28.036Z,6.55
2022-11-27T06:22:55.458Z,6.55
2022-11-27T06:25:22.762Z,6.60
2022-11-27T06:27:49.485Z,6.58
2022-11-27T06:30:16.117Z,6.54
2022-11-27T06:32:42.670Z,6.56
2022-11-27T06:35:10.056Z,6.59
2022-11-27T06:37:36.694Z,6.56
2022-11-27T06:40:03.856Z,6.59
2022-11-27T06:42:30.749Z,6.61
2022-11-27T06:44:57.592Z,6.61
2022-11-27T06:47:24.286Z,6.64
2022-11-27T06:49:50.800Z,6.63
2022-11-27T06:52:19.826Z,6.63
2022-11-27T06:54:48.626Z,6.64
2022-11-27T06:57:16.978Z,6.64
2022-11-27T06:59:44.025Z,6.66
2022-11-27T07:02:13.645Z,6.66
2022-11-27T07:04:42.718Z,6.68
2022-11-27T07:07:09.832Z,6.68
2022-11-27T07:09:36.251Z,6.70
2022-11-27T07:12:04.316Z,6.72
2022-11-27T07:14:31.006Z,6.75
2022-11-27T07:16:58.172Z,6.79
2022-11-27T07:19:24.667Z,6.77
2022-11-27T07:21:51.047Z,6.82
2022-11-27T07:24:18.192Z,6.82
2022-11-27T07:26:48.340Z,6.84
2022-11-27T07:29:14.712Z,6.84
2022-11-27T07:31:44.080Z,6.86
2022-11-27T07:34:15.955Z,6.86
2022-11-27T07:36:43.827Z,6.81
2022-11-27T07:39:10.294Z,6.89
2022-11-27T07:41:37.410Z,6.90
2022-11-27T07:44:04.058Z,6.94
2022-11-27T07:46:30.987Z,6.95
2022-11-27T07:48:58.079Z,6.97
2022-11-27T07:51:24.607Z,6.99
2022-11-27T07:53:54.367Z,7.02
2022-11-27T07:56:21.910Z,7.09
2022-11-27T07:58:48.551Z,7.12
2022-11-27T08:01:17.024Z,7.15
2022-11-27T08:03:45.011Z,7.16
2022-11-27T08:06:22.112Z,7.17
2022-11-27T08:08:49.310Z,7.22
2022-11-27T08:11:20.980Z,7.22
2022-11-27T08:13:47.909Z,7.26
2022-11-27T08:16:14.586Z,7.28
2022-11-27T08:18:44.954Z,7.32
2022-11-27T08:21:15.384Z,7.35
2022-11-27T08:23:42.462Z,7.39
2022-11-27T08:26:09.703Z,7.43
2022-11-27T08:28:36.636Z,7.47
2022-11-27T08:31:04.426Z,7.54
2022-11-27T08:33:32.857Z,7.57
2022-11-27T08:36:00.899Z,7.63
2022-11-27T08:38:27.296Z,7.63
2022-11-27T08:40:55.295Z,7.70
2022-11-27T08:43:22.286Z,7.72
2022-11-27T08:45:48.902Z,7.79
2022-11-27T08:48:15.425Z,7.82
2022-11-27T08:50:41.978Z,7.84
2022-11-27T08:53:09.594Z,7.89
2022-11-27T08:55:36.276Z,7.95
2022-11-27T08:58:03.937Z,8.00
2022-11-27T09:00:31.324Z,8.05
2022-11-27T09:03:01.038Z,8.06
2022-11-27T09:05:27.993Z,8.09
2022-11-27T09:07:55.144Z,8.08
2022-11-27T09:10:30.641Z,8.09
2022-11-27T09:12:59.416Z,8.12
2022-11-27T09:15:26.920Z,8.06
2022-11-27T09:17:53.602Z,8.07
2022-11-27T09:20:20.159Z,8.10
2022-11-27T09:22:46.508Z,8.13
2022-11-27T09:25:12.947Z,8.18
2022-11-27T09:27:39.368Z,8.19
2022-11-27T09:30:07.428Z,8.25
2022-11-27T09:32:34.025Z,8.26
2022-11-27T09:35:01.521Z,8.29
2022-11-27T09:37:27.920Z,8.34
2022-11-27T09:39:55.588Z,8.38
2022-11-27T09:42:31.060Z,8.39
2022-11-27T09:44:59.270Z,8.42
2022-11-27T09:47:41.038Z,8.43
2022-11-27T09:50:13.038Z,8.39
2022-11-27T09:52:44.600Z,8.42
2022-11-27T09:55:24.654Z,8.52
2022-11-27T09:58:14.569Z,8.58
2022-11-27T10:00:43.549Z,8.63
2022-11-27T10:03:13.942Z,8.68
2022-11-27T10:05:57.779Z,8.75
2022-11-27T10:08:44.930Z,8.78
2022-11-27T10:11:38.268Z,8.82
2022-11-27T10:14:16.884Z,8.83
2022-11-27T10:17:23.337Z,8.86
2022-11-27T10:19:53.963Z,8.90
2022-11-27T10:22:28.596Z,9.01
2022-11-27T10:25:01.101Z,9.06
2022-11-27T10:27:50.870Z,9.06
2022-11-27T10:30:26.417Z,9.06
2022-11-27T10:32:56.582Z,9.01
2022-11-27T10:35:24.930Z,9.03
2022-11-27T10:38:24.097Z,9.04
2022-11-27T10:41:01.271Z,9.05
2022-11-27T10:43:27.674Z,9.14
2022-11-27T10:45:57.268Z,9.15
2022-11-27T10:48:29.661Z,9.20
2022-11-27T10:50:56.572Z,9.24
2022-11-27T10:53:35.591Z,9.26
2022-11-27T10:56:02.155Z,9.35
2022-11-27T10:58:29.332Z,9.38
2022-11-27T11:01:07.069Z,9.41
2022-11-27T11:03:34.025Z,9.46
2022-11-27T11:06:21.288Z,9.48
2022-11-27T11:09:02.941Z,9.52
2022-11-27T11:11:29.591Z,9.55
2022-11-27T11:14:01.809Z,9.60
2022-11-27T11:16:35.203Z,9.59
2022-11-27T11:19:02.788Z,9.58
2022-11-27T11:21:34.397Z,9.57
2022-11-27T11:24:15.154Z,9.54
2022-11-27T11:26:53.035Z,9.57
2022-11-27T11:29:45.345Z,9.59
2022-11-27T11:32:21.339Z,9.61
2022-11-27T11:34:56.236Z,9.60
2022-11-27T11:37:30.464Z,9.67
2022-11-27T11:40:11.939Z,9.64
2022-11-27T11:43:12.787Z,9.67
2022-11-27T11:46:03.683Z,9.61
2022-11-27T11:48:30.336Z,9.60
2022-11-27T11:50:56.756Z,9.59
2022-11-27T11:53:29.438Z,9.60
2022-11-27T11:56:07.361Z,9.58
2022-11-27T11:58:58.910Z,9.59
2022-11-27T12:01:38.748Z,9.62
2022-11-27T12:04:10.488Z,9.67
2022-11-27T12:06:59.598Z,9.70
2022-11-27T12:09:29.193Z,9.75
2022-11-27T12:12:22.043Z,9.75
2022-11-27T12:14:52.571Z,9.78
2022-11-27T12:17:45.998Z,9.83
2022-11-27T12:20:17.805Z,9.91
2022-11-27T12:23:00.486Z,9.92
2022-11-27T12:25:34.176Z,9.92
2022-11-27T12:28:19.159Z,9.92
2022-11-27T12:31:11.576Z,9.98
2022-11-27T12:33:59.961Z,9.98
2022-11-27T12:37:05.822Z,9.97
2022-11-27T12:39:48.967Z,9.96
2022-11-27T12:42:27.778Z,9.91
2022-11-27T12:44:57.808Z,9.92
2022-11-27T12:47:37.261Z,9.96
2022-11-27T12:50:08.956Z,9.99
2022-11-27T12:53:30.614Z,9.96
2022-11-27T12:56:18.564Z,9.98
2022-11-27T12:59:02.293Z,10.04
2022-11-27T13:01:39.653Z,10.05
2022-11-27T13:04:38.053Z,10.10
2022-11-27T13:07:59.151Z,10.10
2022-11-27T13:10:58.467Z,10.10
2022-11-27T13:14:15.429Z,10.09
2022-11-27T13:17:01.693Z,10.07
2022-11-27T13:19:37.300Z,10.11
2022-11-27T13:22:45.419Z,10.12
2022-11-27T13:28:27.621Z,10.19
2022-11-27T13:30:58.714Z,10.24
2022-11-27T13:33:46.310Z,10.25
2022-11-27T13:39:59.813Z,10.22
2022-11-27T13:42:29.579Z,10.19
2022-11-27T13:45:03.098Z,10.19
2022-11-27T13:47:42.763Z,10.16
2022-11-27T13:50:14.756Z,10.14
2022-11-27T13:52:59.921Z,10.16
2022-11-27T13:55:29.060Z,10.15
2022-11-27T13:57:59.733Z,10.17
2022-11-27T14:00:36.973Z,10.16
2022-11-27T14:03:10.615Z,10.16
2022-11-27T14:05:44.560Z,10.16
2022-11-27T14:08:19.490Z,10.12
2022-11-27T14:11:20.209Z,10.11
2022-11-27T14:13:52.202Z,10.06
2022-11-27T15:29:05.880Z,9.23
2022-11-27T15:31:33.298Z,9.22
2022-11-27T15:34:05.554Z,9.18
2022-11-27T15:36:55.351Z,9.14
2022-11-27T15:39:25.827Z,9.17
2022-11-27T15:41:57.084Z,9.19
2022-11-27T15:44:35.489Z,9.15
2022-11-27T15:47:07.520Z,9.16
2022-11-27T15:49:36.434Z,9.13
2022-11-27T15:52:02.933Z,9.15
2022-11-27T15:54:29.364Z,9.11
2022-11-27T15:56:58.358Z,9.14
2022-11-27T15:59:34.139Z,9.11
2022-11-27T16:02:13.190Z,9.08
2022-11-27T16:04:43.970Z,9.09
2022-11-27T16:07:19.467Z,9.05
2022-11-27T16:09:52.093Z,9.01
2022-11-27T16:15:53.561Z,8.96
2022-11-27T16:18:21.516Z,8.88
2022-11-27T16:20:56.616Z,8.89
2022-11-27T16:23:26.488Z,8.87
2022-11-27T16:26:09.879Z,8.83
2022-11-27T16:28:39.629Z,8.82
2022-11-27T16:31:16.378Z,8.82
2022-11-27T16:34:11.919Z,8.83
2022-11-27T16:36:40.323Z,8.88
2022-11-27T16:39:06.671Z,8.90
2022-11-27T16:41:33.207Z,8.87
2022-11-27T16:44:12.902Z,8.90
2022-11-27T16:46:39.911Z,8.92
2022-11-27T16:49:10.342Z,8.96
2022-11-27T16:51:42.778Z,8.98
2022-11-27T16:54:11.025Z,9.00
2022-11-27T16:56:38.583Z,8.98
2022-11-27T16:59:09.430Z,8.93
2022-11-27T17:01:42.672Z,8.97
2022-11-27T17:04:19.576Z,8.97
2022-11-27T17:06:53.620Z,8.89
2022-11-27T17:09:32.052Z,8.89
2022-11-27T17:12:05.316Z,8.90
2022-11-27T17:14:31.980Z,8.83
2022-11-27T17:17:04.429Z,8.84
2022-11-27T17:19:43.297Z,8.84
2022-11-27T17:22:10.397Z,8.84
2022-11-27T17:24:36.853Z,8.82
2022-11-27T17:27:03.310Z,8.84
2022-11-27T17:29:33.557Z,8.84
2022-11-27T17:32:06.814Z,8.76
2022-11-27T17:34:33.714Z,8.72
2022-11-27T17:37:00.379Z,8.74
2022-11-27T17:39:26.855Z,8.73
2022-11-27T17:41:53.457Z,8.72
2022-11-27T17:44:19.944Z,8.69
2022-11-27T17:46:49.851Z,8.74
2022-11-27T17:49:16.737Z,8.77
2022-11-27T17:51:44.366Z,8.77
2022-11-27T17:54:35.779Z,8.70
2022-11-27T17:57:02.784Z,8.72
2022-11-27T17:59:31.594Z,8.70
2022-11-27T18:01:58.383Z,8.69
2022-11-27T18:04:24.998Z,8.69
2022-11-27T18:06:51.879Z,8.71
2022-11-27T18:09:21.737Z,8.68
2022-11-27T18:11:48.282Z,8.65
2022-11-27T18:14:17.098Z,8.64
2022-11-27T18:16:43.756Z,8.65
2022-11-27T18:19:12.824Z,8.61
2022-11-27T18:21:39.495Z,8.67
2022-11-27T18:24:23.996Z,8.85
2022-11-27T18:27:08.619Z,8.91
2022-11-27T18:29:42.512Z,8.76
2022-11-27T18:32:10.100Z,8.66
2022-11-27T18:34:38.348Z,8.66
2022-11-27T18:37:05.084Z,8.64
2022-11-27T18:39:32.008Z,8.64
2022-11-27T18:41:58.461Z,8.67
2022-11-27T18:44:25.180Z,8.59
2022-11-27T18:46:51.761Z,8.52
2022-11-27T18:49:18.417Z,8.46
2022-11-27T18:51:45.066Z,8.45
2022-11-27T18:54:11.990Z,8.43
2022-11-27T18:56:39.037Z,8.50
2022-11-27T18:59:06.239Z,8.52
2022-11-27T19:01:39.599Z,8.52
2022-11-27T19:04:07.622Z,8.49
2022-11-27T19:06:35.141Z,8.49
2022-11-27T19:09:01.741Z,8.51
2022-11-27T19:11:30.244Z,8.46
2022-11-27T19:13:57.276Z,8.48
2022-11-27T19:16:25.898Z,8.45
2022-11-27T19:18:52.777Z,8.38
2022-11-27T19:21:30.317Z,8.44
2022-11-27T19:24:12.128Z,8.44
2022-11-27T19:26:38.932Z,8.36
2022-11-27T19:29:07.812Z,8.36
2022-11-27T19:31:37.880Z,8.36
2022-11-27T19:34:05.398Z,8.37
2022-11-27T19:36:32.805Z,8.41
2022-11-27T19:39:01.171Z,8.45
2022-11-27T19:41:28.076Z,8.47
2022-11-27T19:43:54.589Z,8.43
2022-11-27T19:46:22.490Z,8.43
2022-11-27T19:48:49.918Z,8.45
2022-11-27T19:51:36.651Z,8.37
2022-11-27T19:54:28.921Z,8.41
2022-11-27T19:57:15.724Z,8.41
2022-11-27T20:00:17.062Z,8.44
